Time;durP1;ratioP1;P1;durP2;ratioP2;P2;SDS_P1;SDS_P2;PMS_P1;PMS_P2;Temp;Humidity;BMP_temperature;BMP_pressure;BME280_temperature;BME280_humidity;BME280_pressure;Samples;Min_cycle;Max_cycle;Signal;HPM_P1;HPM_P2
2022/10/09 00:01:00;;;;;;;11.70;4.93;;;14.40;87.40;;;;;;5034354;28;20148;-72
2022/10/09 00:03:26;;;;;;;11.05;4.25;;;14.40;87.40;;;;;;5034542;28;20025;-71
2022/10/09 00:05:52;;;;;;;7.57;3.42;;;14.30;87.40;;;;;;5034278;28;20460;-71
2022/10/09 00:08:17;;;;;;;9.48;3.70;;;14.40;87.50;;;;;;5034367;28;20030;-71
2022/10/09 00:10:43;;;;;;;10.68;4.05;;;14.40;87.30;;;;;;5034192;28;20021;-71
2022/10/09 00:13:09;;;;;;;11.38;4.40;;;14.50;87.30;;;;;;5034378;28;20030;-71
2022/10/09 00:15:39;;;;;;;9.98;3.72;;;14.40;86.90;;;;;;5033960;28;20028;-71
2022/10/09 00:18:06;;;;;;;7.60;3.20;;;14.30;87.00;;;;;;5033996;28;20485;-71
2022/10/09 00:20:37;;;;;;;10.02;4.03;;;14.30;86.90;;;;;;5034244;28;20025;-71
2022/10/09 00:23:02;;;;;;;8.27;3.47;;;14.40;86.90;;;;;;5033278;28;20064;-71
2022/10/09 00:25:28;;;;;;;9.25;3.75;;;14.40;86.80;;;;;;5033876;28;20053;-71
2022/10/09 00:27:56;;;;;;;9.15;3.85;;;14.40;86.50;;;;;;5033711;28;20045;-70
2022/10/09 00:30:22;;;;;;;10.15;3.78;;;14.30;86.60;;;;;;5034033;28;20021;-71
2022/10/09 00:32:47;;;;;;;5.97;2.75;;;14.30;86.80;;;;;;5033542;28;20386;-71
2022/10/09 00:35:13;;;;;;;8.77;3.80;;;14.30;86.70;;;;;;5033878;28;20033;-70
2022/10/09 00:37:39;;;;;;;10.77;3.30;;;14.40;86.80;;;;;;5034238;28;20116;-72
2022/10/09 00:40:05;;;;;;;10.52;3.20;;;14.40;86.60;;;;;;5033894;28;20071;-72
2022/10/09 00:42:30;;;;;;;6.05;2.70;;;14.40;86.40;;;;;;5033543;28;20473;-72
2022/10/09 00:44:59;;;;;;;10.90;3.90;;;14.40;86.40;;;;;;5033467;28;20040;-72
2022/10/09 00:47:41;;;;;;;8.18;3.40;;;14.50;86.40;;;;;;5033518;28;20404;-72
2022/10/09 00:50:19;;;;;;;7.30;3.03;;;14.50;86.30;;;;;;5033804;28;20087;-72
2022/10/09 00:52:46;;;;;;;8.55;2.67;;;14.50;86.30;;;;;;5033239;28;20034;-72
2022/10/09 00:55:13;;;;;;;8.30;3.08;;;14.50;86.40;;;;;;5033366;28;20033;-72
2022/10/09 00:57:40;;;;;;;7.60;3.22;;;14.50;86.50;;;;;;5033590;28;20037;-72
2022/10/09 01:00:09;;;;;;;9.07;2.70;;;14.40;85.60;;;;;;5033626;28;20026;-72
2022/10/09 01:02:35;;;;;;;5.97;2.50;;;14.20;86.30;;;;;;5033337;28;20025;-72
2022/10/09 01:05:05;;;;;;;7.30;3.00;;;14.20;86.60;;;;;;5033077;28;20109;-72
2022/10/09 01:07:31;;;;;;;7.50;2.70;;;14.20;86.60;;;;;;5033227;28;20026;-71
2022/10/09 01:10:37;;;;;;;6.25;2.58;;;14.20;86.70;;;;;;5033384;28;20091;-71
2022/10/09 01:13:33;;;;;;;6.95;2.50;;;14.30;86.80;;;;;;5033205;28;20029;-71
2022/10/09 01:16:14;;;;;;;7.10;3.90;;;14.40;86.70;;;;;;5029882;28;20335;-71
2022/10/09 01:19:14;;;;;;;6.88;2.60;;;14.40;86.70;;;;;;5033140;28;20033;-71
2022/10/09 01:21:51;;;;;;;9.40;3.17;;;14.40;86.70;;;;;;5032993;28;20487;-71
2022/10/09 01:24:35;;;;;;;6.68;2.92;;;14.40;86.60;;;;;;5033282;28;20029;-71
2022/10/09 01:27:24;;;;;;;9.70;3.10;;;14.40;86.80;;;;;;5032826;28;20050;-72
2022/10/09 01:29:58;;;;;;;7.25;2.40;;;14.40;86.80;;;;;;5033256;28;20025;-71
2022/10/09 01:32:31;;;;;;;8.80;2.53;;;14.40;86.80;;;;;;5033504;28;20572;-71
2022/10/09 01:34:57;;;;;;;8.27;2.78;;;14.50;86.80;;;;;;5036575;28;20033;-71
2022/10/09 01:37:24;;;;;;;10.48;3.50;;;14.50;86.70;;;;;;5037056;28;20113;-71
2022/10/09 01:39:50;;;;;;;6.03;2.58;;;14.50;86.70;;;;;;5036872;28;20047;-71
2022/10/09 01:42:18;;;;;;;5.88;2.50;;;14.40;86.70;;;;;;5036867;28;20033;-71
2022/10/09 01:44:44;;;;;;;11.13;3.45;;;14.40;86.70;;;;;;5036872;28;20026;-71
2022/10/09 01:47:15;;;;;;;8.55;3.22;;;14.40;86.70;;;;;;5037140;28;20018;-71
2022/10/09 01:50:04;;;;;;;10.25;3.00;;;14.40;86.70;;;;;;5036642;28;20037;-71
2022/10/09 01:52:38;;;;;;;7.75;2.78;;;14.30;86.80;;;;;;5033214;28;20040;-71
2022/10/09 01:55:32;;;;;;;5.78;2.70;;;14.30;86.80;;;;;;5036437;28;20036;-71
2022/10/09 01:58:04;;;;;;;7.32;2.65;;;14.40;86.90;;;;;;5036843;28;20026;-71
2022/10/09 02:00:34;;;;;;;7.50;2.67;;;14.40;86.80;;;;;;5036713;28;20159;-71
2022/10/09 02:03:03;;;;;;;8.55;2.60;;;14.40;86.80;;;;;;5036644;28;20478;-71
2022/10/09 02:05:30;;;;;;;8.45;3.05;;;14.40;86.80;;;;;;5036361;28;20076;-71
2022/10/09 02:07:59;;;;;;;7.63;2.85;;;14.40;87.00;;;;;;5036372;28;20409;-71
2022/10/09 02:10:26;;;;;;;10.40;3.08;;;14.30;86.70;;;;;;5035838;28;20033;-71
2022/10/09 02:13:01;;;;;;;9.95;3.30;;;14.20;87.20;;;;;;5036714;28;20108;-70
2022/10/09 02:15:33;;;;;;;9.60;2.50;;;14.10;86.80;;;;;;5036683;28;20097;-70
2022/10/09 02:18:07;;;;;;;9.25;2.70;;;14.10;87.00;;;;;;5036035;28;20040;-71
2022/10/09 02:20:38;;;;;;;6.80;3.38;;;14.10;87.10;;;;;;5036601;28;20370;-71
2022/10/09 02:23:06;;;;;;;8.68;3.92;;;14.10;87.10;;;;;;5036511;28;20037;-71
2022/10/09 02:25:33;;;;;;;9.40;3.78;;;14.10;87.30;;;;;;5036101;28;20101;-71
2022/10/09 02:27:59;;;;;;;11.00;3.22;;;13.90;87.40;;;;;;5035000;28;20085;-70
2022/10/09 02:30:28;;;;;;;12.80;3.70;;;13.80;87.80;;;;;;5035656;28;20033;-70
2022/10/09 02:32:54;;;;;;;9.45;3.83;;;13.70;88.00;;;;;;5034810;28;20103;-71
2022/10/09 02:35:20;;;;;;;12.85;3.33;;;13.70;88.10;;;;;;5034747;28;20500;-71
2022/10/09 02:37:47;;;;;;;7.53;3.28;;;13.70;88.30;;;;;;5034688;28;20477;-71
2022/10/09 02:40:13;;;;;;;7.40;3.00;;;13.70;88.40;;;;;;5034880;28;20084;-71
2022/10/09 02:42:39;;;;;;;8.70;2.92;;;13.70;88.20;;;;;;5034477;28;20386;-71
2022/10/09 02:45:05;;;;;;;10.23;3.15;;;13.80;88.10;;;;;;5034175;28;20038;-71
2022/10/09 02:47:31;;;;;;;7.35;2.78;;;13.80;87.90;;;;;;5034799;28;20060;-71
2022/10/09 02:49:56;;;;;;;7.15;3.33;;;13.90;87.90;;;;;;5034433;28;20529;-71
2022/10/09 02:52:22;;;;;;;6.57;2.75;;;13.90;87.70;;;;;;5034459;28;20080;-71
2022/10/09 02:54:48;;;;;;;8.05;2.80;;;13.90;87.60;;;;;;5034619;28;20116;-71
2022/10/09 02:57:13;;;;;;;8.13;2.58;;;13.90;87.50;;;;;;5034084;28;20039;-71
2022/10/09 02:59:39;;;;;;;8.43;2.80;;;14.00;87.40;;;;;;5034660;28;20109;-71
2022/10/09 03:02:04;;;;;;;6.00;2.40;;;14.00;87.20;;;;;;5034604;28;20526;-71
2022/10/09 03:04:30;;;;;;;6.65;3.05;;;14.00;87.10;;;;;;5034564;28;20450;-71
2022/10/09 03:06:55;;;;;;;6.13;2.47;;;14.00;87.10;;;;;;5034362;28;20500;-71
2022/10/09 03:09:21;;;;;;;8.98;3.30;;;14.00;87.20;;;;;;5034088;28;20155;-71
2022/10/09 03:11:46;;;;;;;7.57;2.53;;;14.00;87.30;;;;;;5034469;28;20351;-71
2022/10/09 03:14:12;;;;;;;7.00;2.83;;;13.90;87.20;;;;;;5034067;28;20101;-71
2022/10/09 03:16:38;;;;;;;6.15;3.10;;;13.90;87.30;;;;;;5033842;28;20029;-71
2022/10/09 03:19:03;;;;;;;5.28;2.30;;;14.00;87.30;;;;;;5034094;28;20104;-72
2022/10/09 03:21:29;;;;;;;8.48;2.90;;;13.90;87.20;;;;;;5034152;28;20018;-72
2022/10/09 03:23:54;;;;;;;7.18;2.60;;;13.90;87.50;;;;;;5034131;28;20493;-72
2022/10/09 03:26:23;;;;;;;8.75;3.10;;;13.90;87.20;;;;;;4995467;28;1124904;-69
2022/10/09 03:28:51;;;;;;;5.55;2.90;;;13.80;87.20;;;;;;5035014;28;20033;-70
2022/10/09 03:31:18;;;;;;;6.95;2.53;;;13.80;87.30;;;;;;5035133;28;20068;-71
2022/10/09 03:33:44;;;;;;;9.07;2.60;;;13.90;87.40;;;;;;5034883;28;20483;-71
2022/10/09 03:36:10;;;;;;;8.32;2.80;;;13.90;87.40;;;;;;5035005;28;20033;-71
2022/10/09 03:38:36;;;;;;;7.50;2.95;;;13.90;87.30;;;;;;5034893;28;20079;-71
2022/10/09 03:41:03;;;;;;;6.57;3.13;;;13.90;87.20;;;;;;5034800;28;20025;-71
2022/10/09 03:43:29;;;;;;;6.80;2.97;;;13.90;86.80;;;;;;5034437;28;20044;-71
2022/10/09 03:45:55;;;;;;;6.32;2.90;;;13.80;86.70;;;;;;5034883;28;20025;-71
2022/10/09 03:48:21;;;;;;;7.43;3.10;;;13.70;86.60;;;;;;5034945;28;20491;-71
2022/10/09 03:50:46;;;;;;;9.25;3.30;;;13.70;86.70;;;;;;5034490;28;20029;-71
2022/10/09 03:53:16;;;;;;;10.38;3.85;;;13.70;86.70;;;;;;5034484;28;20029;-71
2022/10/09 03:55:44;;;;;;;7.93;4.03;;;13.60;86.80;;;;;;5034106;28;20052;-71
2022/10/09 03:58:13;;;;;;;8.30;3.80;;;13.60;86.90;;;;;;5034106;28;20049;-71
2022/10/09 04:00:38;;;;;;;7.90;3.00;;;13.50;86.90;;;;;;5033384;28;20100;-71
2022/10/09 04:03:04;;;;;;;5.82;2.65;;;13.50;87.00;;;;;;5034566;28;20115;-71
2022/10/09 04:05:33;;;;;;;7.72;3.00;;;13.50;87.60;;;;;;5034137;28;20412;-71
2022/10/09 04:07:58;;;;;;;11.68;3.35;;;13.50;86.90;;;;;;5034254;28;20485;-71
2022/10/09 04:10:24;;;;;;;8.23;3.47;;;13.50;86.90;;;;;;5034063;28;20104;-71
2022/10/09 04:12:49;;;;;;;6.47;3.08;;;13.50;86.90;;;;;;5034105;28;20457;-71
2022/10/09 04:15:15;;;;;;;7.20;3.00;;;13.50;86.80;;;;;;5034136;28;20021;-71
2022/10/09 04:17:41;;;;;;;6.55;3.08;;;13.50;86.90;;;;;;5034110;28;20033;-71
2022/10/09 04:20:07;;;;;;;8.05;2.72;;;13.50;86.90;;;;;;5034041;28;20026;-71
2022/10/09 04:22:32;;;;;;;6.40;2.90;;;13.40;86.80;;;;;;5034586;28;20025;-70
2022/10/09 04:25:00;;;;;;;7.53;3.20;;;13.40;86.70;;;;;;5034536;28;20025;-71
2022/10/09 04:27:26;;;;;;;6.00;2.97;;;13.40;86.80;;;;;;5033427;28;20515;-71
2022/10/09 04:29:52;;;;;;;7.05;3.38;;;13.30;86.90;;;;;;5033781;28;20051;-71
2022/10/09 04:32:17;;;;;;;6.93;3.05;;;13.30;86.90;;;;;;5033681;28;20062;-71
2022/10/09 04:34:43;;;;;;;6.70;3.40;;;13.30;86.90;;;;;;5033800;28;20047;-71
2022/10/09 04:37:08;;;;;;;6.97;3.00;;;13.30;86.90;;;;;;5033691;28;20389;-71
2022/10/09 04:39:34;;;;;;;6.95;3.50;;;13.30;86.80;;;;;;5033603;28;20025;-71
2022/10/09 04:41:59;;;;;;;5.50;2.45;;;13.30;86.80;;;;;;5033832;28;20101;-71
2022/10/09 04:44:25;;;;;;;7.18;3.30;;;13.20;86.90;;;;;;5033651;28;20028;-71
2022/10/09 04:46:51;;;;;;;8.45;3.45;;;13.20;87.00;;;;;;5033752;28;20495;-71
2022/10/09 04:49:17;;;;;;;6.97;3.53;;;13.10;87.00;;;;;;5033462;28;20452;-71
2022/10/09 04:51:43;;;;;;;8.80;3.20;;;13.00;87.50;;;;;;5033351;28;20563;-71
2022/10/09 04:54:09;;;;;;;9.57;3.30;;;12.90;87.70;;;;;;5033692;28;20018;-71
2022/10/09 04:56:35;;;;;;;6.30;3.03;;;12.90;87.70;;;;;;5033585;28;20116;-71
2022/10/09 04:59:01;;;;;;;6.82;2.95;;;13.00;87.80;;;;;;5033343;28;20481;-72
2022/10/09 05:01:28;;;;;;;6.65;2.75;;;13.10;87.70;;;;;;5033462;28;20535;-72
2022/10/09 05:03:54;;;;;;;6.22;2.35;;;13.10;87.70;;;;;;5033491;28;20025;-72
2022/10/09 05:06:21;;;;;;;7.18;3.20;;;13.10;87.60;;;;;;5033202;28;20032;-72
2022/10/09 05:08:47;;;;;;;6.18;2.63;;;13.20;87.50;;;;;;5033396;28;20104;-72
2022/10/09 05:11:15;;;;;;;5.45;2.55;;;13.20;87.50;;;;;;5033283;28;20017;-72
2022/10/09 05:13:44;;;;;;;6.60;2.58;;;13.20;87.50;;;;;;5033370;28;20436;-72
2022/10/09 05:16:21;;;;;;;6.95;2.45;;;13.20;87.50;;;;;;5033266;28;20044;-72
2022/10/09 05:18:49;;;;;;;7.05;2.90;;;13.20;87.50;;;;;;5033280;28;20367;-72
2022/10/09 05:21:15;;;;;;;7.45;2.85;;;13.30;87.70;;;;;;5033332;28;20080;-71
2022/10/09 05:23:41;;;;;;;6.53;3.13;;;13.30;87.50;;;;;;5033301;28;20374;-72
2022/10/09 05:26:10;;;;;;;8.13;3.30;;;13.30;87.40;;;;;;5032809;28;20068;-72
2022/10/09 05:28:36;;;;;;;7.03;2.70;;;13.20;87.80;;;;;;5033158;28;20037;-72
2022/10/09 05:31:03;;;;;;;9.10;2.70;;;13.20;87.20;;;;;;5033116;28;20037;-72
2022/10/09 05:33:30;;;;;;;6.30;2.70;;;13.20;87.40;;;;;;5033039;28;20091;-71
2022/10/09 05:35:59;;;;;;;8.32;2.78;;;13.20;87.60;;;;;;5033226;28;20033;-71
2022/10/09 05:38:26;;;;;;;5.85;2.38;;;13.20;87.60;;;;;;5033180;28;20026;-71
2022/10/09 05:40:54;;;;;;;6.05;2.70;;;13.20;87.80;;;;;;5033114;28;20028;-70
2022/10/09 05:43:22;;;;;;;4.47;2.53;;;13.20;87.70;;;;;;5033160;28;20033;-71
2022/10/09 05:45:47;;;;;;;7.25;3.55;;;13.20;87.50;;;;;;5032700;28;20035;-71
2022/10/09 05:48:13;;;;;;;6.00;3.00;;;13.10;87.30;;;;;;5032708;28;20120;-71
2022/10/09 05:50:38;;;;;;;8.07;2.65;;;13.00;87.50;;;;;;5033164;28;20080;-71
2022/10/09 05:53:04;;;;;;;7.28;2.33;;;13.00;87.60;;;;;;5032831;28;20112;-72
2022/10/09 05:55:29;;;;;;;7.50;2.80;;;13.00;87.80;;;;;;5033130;28;20029;-71
2022/10/09 05:57:55;;;;;;;5.47;2.65;;;12.90;87.80;;;;;;5033092;28;20517;-72
2022/10/09 06:00:20;;;;;;;5.57;2.38;;;12.90;87.90;;;;;;5032646;28;20052;-72
2022/10/09 06:02:46;;;;;;;8.77;3.00;;;12.90;87.90;;;;;;5032779;28;20039;-72
2022/10/09 06:05:12;;;;;;;10.88;3.70;;;12.90;87.90;;;;;;5032746;28;20051;-72
2022/10/09 06:07:38;;;;;;;5.50;2.53;;;12.90;87.90;;;;;;5032416;28;20034;-72
2022/10/09 06:10:04;;;;;;;8.30;2.85;;;12.90;87.90;;;;;;5032699;28;20021;-72
2022/10/09 06:12:29;;;;;;;6.82;2.58;;;12.80;88.10;;;;;;5032426;28;20492;-72
2022/10/09 06:14:55;;;;;;;8.35;3.05;;;12.80;88.20;;;;;;5033075;28;20026;-71
2022/10/09 06:17:21;;;;;;;8.20;2.65;;;12.80;88.20;;;;;;5033182;28;20037;-72
2022/10/09 06:19:49;;;;;;;8.38;3.08;;;12.80;88.30;;;;;;5033459;28;20484;-72
2022/10/09 06:22:15;;;;;;;5.80;2.45;;;12.70;88.40;;;;;;5036134;28;20026;-72
2022/10/09 06:24:40;;;;;;;7.93;3.35;;;12.80;88.50;;;;;;5036050;28;20147;-72
2022/10/09 06:27:06;;;;;;;6.75;2.95;;;12.80;88.60;;;;;;5035786;28;20053;-72
2022/10/09 06:29:31;;;;;;;7.03;3.10;;;12.70;88.60;;;;;;5035950;28;20094;-72
2022/10/09 06:31:57;;;;;;;7.25;3.00;;;12.70;88.60;;;;;;5036217;28;20472;-72
2022/10/09 06:34:23;;;;;;;8.70;3.00;;;12.70;88.50;;;;;;5035626;28;20018;-72
2022/10/09 06:36:48;;;;;;;6.95;3.60;;;12.70;88.70;;;;;;5036078;28;20037;-71
2022/10/09 06:39:14;;;;;;;8.30;3.13;;;12.70;88.70;;;;;;5036134;28;20381;-71
2022/10/09 06:41:40;;;;;;;7.10;2.92;;;12.60;88.90;;;;;;5036142;28;20021;-71
2022/10/09 06:44:10;;;;;;;6.85;3.35;;;12.50;89.10;;;;;;5035684;28;20473;-71
2022/10/09 06:46:39;;;;;;;11.02;3.03;;;12.50;89.20;;;;;;5035539;28;20548;-71
2022/10/09 06:49:06;;;;;;;9.07;3.08;;;12.60;89.60;;;;;;5035583;28;20029;-72
2022/10/09 06:51:32;;;;;;;10.10;3.50;;;12.60;89.50;;;;;;5035407;28;20528;-71
2022/10/09 06:54:01;;;;;;;10.60;3.40;;;12.50;89.70;;;;;;5035761;28;20061;-71
2022/10/09 06:56:29;;;;;;;10.20;3.72;;;12.40;90.00;;;;;;5035187;28;20489;-72
2022/10/09 06:58:55;;;;;;;6.97;3.28;;;12.30;90.20;;;;;;5035461;28;20029;-72
2022/10/09 07:01:25;;;;;;;9.68;3.00;;;12.30;90.40;;;;;;5035737;28;20048;-70
2022/10/09 07:03:57;;;;;;;9.63;3.72;;;12.30;90.50;;;;;;5035557;28;20029;-71
2022/10/09 07:06:26;;;;;;;10.60;3.30;;;12.40;90.50;;;;;;5035514;28;20151;-71
2022/10/09 07:08:55;;;;;;;9.05;3.33;;;12.50;90.50;;;;;;5035231;28;20071;-71
2022/10/09 07:11:24;;;;;;;10.10;3.53;;;12.60;90.40;;;;;;5035276;28;20119;-71
2022/10/09 07:13:55;;;;;;;11.85;3.70;;;12.60;90.40;;;;;;5035397;28;20171;-70
2022/10/09 07:16:23;;;;;;;9.07;3.10;;;12.60;90.50;;;;;;5035307;28;20056;-71
2022/10/09 07:18:49;;;;;;;8.93;3.67;;;12.70;90.60;;;;;;5035520;28;20033;-71
2022/10/09 07:21:15;;;;;;;9.27;3.50;;;12.80;90.70;;;;;;5035130;28;20377;-71
2022/10/09 07:23:41;;;;;;;10.98;4.10;;;12.80;90.80;;;;;;5035199;28;20120;-72
2022/10/09 07:26:13;;;;;;;14.25;4.88;;;12.80;90.80;;;;;;5034900;28;20112;-72
2022/10/09 07:28:40;;;;;;;12.13;4.20;;;12.80;91.10;;;;;;5034740;28;20026;-72
2022/10/09 07:31:06;;;;;;;13.68;3.72;;;12.60;91.20;;;;;;5033771;28;20045;-72
2022/10/09 07:33:32;;;;;;;9.63;4.00;;;12.60;91.30;;;;;;5034870;28;20087;-71
2022/10/09 07:35:59;;;;;;;9.93;4.20;;;12.70;91.50;;;;;;5035152;28;20036;-72
2022/10/09 07:38:26;;;;;;;15.32;5.57;;;12.80;91.60;;;;;;5034849;28;20037;-72
2022/10/09 07:40:52;;;;;;;8.95;4.30;;;12.90;91.60;;;;;;5035022;28;20025;-72
2022/10/09 07:43:18;;;;;;;8.77;4.32;;;12.90;91.50;;;;;;5034719;28;20032;-72
2022/10/09 07:45:44;;;;;;;11.75;4.28;;;13.00;91.50;;;;;;5035006;28;20033;-72
2022/10/09 07:48:10;;;;;;;12.30;4.75;;;13.00;91.40;;;;;;5034874;28;20056;-72
2022/10/09 07:50:36;;;;;;;12.90;4.07;;;12.90;91.50;;;;;;5034298;28;20037;-72
2022/10/09 07:53:04;;;;;;;17.33;4.82;;;13.00;91.60;;;;;;5034491;28;20029;-72
2022/10/09 07:55:33;;;;;;;12.18;4.32;;;13.00;91.40;;;;;;5034480;28;20021;-72
2022/10/09 07:57:58;;;;;;;12.95;4.90;;;13.00;91.40;;;;;;5034615;28;20036;-72
2022/10/09 08:00:24;;;;;;;8.10;4.10;;;13.00;91.30;;;;;;5034475;28;20380;-72
2022/10/09 08:02:49;;;;;;;8.88;4.18;;;13.00;91.40;;;;;;5034589;28;20025;-72
2022/10/09 08:05:15;;;;;;;8.35;3.80;;;13.20;91.40;;;;;;5034082;28;20021;-72
2022/10/09 08:07:41;;;;;;;14.50;6.13;;;13.20;91.40;;;;;;5034252;28;20123;-71
2022/10/09 08:10:07;;;;;;;10.85;4.85;;;13.30;91.40;;;;;;5034889;28;20029;-71
2022/10/09 08:12:32;;;;;;;8.60;4.00;;;13.30;91.30;;;;;;5033991;28;20047;-71
2022/10/09 08:14:58;;;;;;;10.70;4.85;;;13.30;91.20;;;;;;5034271;28;20028;-72
2022/10/09 08:17:23;;;;;;;10.25;5.05;;;13.40;91.20;;;;;;5033943;28;20370;-72
2022/10/09 08:19:49;;;;;;;10.75;4.43;;;13.30;91.30;;;;;;5033913;28;20080;-72
2022/10/09 08:22:14;;;;;;;11.25;5.38;;;13.40;91.30;;;;;;5033959;28;20049;-72
2022/10/09 08:24:40;;;;;;;9.75;4.80;;;13.40;91.20;;;;;;5033790;28;20484;-72
2022/10/09 08:27:05;;;;;;;12.45;4.57;;;13.40;91.50;;;;;;5033917;28;20045;-72
2022/10/09 08:29:32;;;;;;;9.77;4.47;;;13.40;91.50;;;;;;5034125;28;20076;-72
2022/10/09 08:31:57;;;;;;;10.88;4.30;;;13.40;91.40;;;;;;5033659;28;20036;-72
2022/10/09 08:34:23;;;;;;;17.80;4.75;;;13.50;91.40;;;;;;5033955;28;20373;-72
2022/10/09 08:36:49;;;;;;;13.25;4.40;;;13.60;91.30;;;;;;5033591;28;20073;-71
2022/10/09 08:39:14;;;;;;;9.25;4.20;;;13.70;91.10;;;;;;5033792;28;20473;-72
2022/10/09 08:41:54;;;;;;;9.50;4.15;;;13.80;91.30;;;;;;5033608;28;20468;-72
2022/10/09 08:44:36;;;;;;;13.65;4.25;;;13.90;91.10;;;;;;5033359;28;20036;-72
2022/10/09 08:47:36;;;;;;;10.23;4.90;;;14.10;90.90;;;;;;5033564;28;20116;-72
2022/10/09 08:50:28;;;;;;;13.82;5.43;;;14.20;90.80;;;;;;5021131;28;20041;-71
2022/10/09 08:53:32;;;;;;;13.63;5.05;;;14.40;90.80;;;;;;5033412;28;20075;-71
2022/10/09 08:56:02;;;;;;;13.25;5.75;;;14.40;90.80;;;;;;5033030;28;20099;-71
2022/10/09 08:58:37;;;;;;;10.68;5.30;;;14.60;90.40;;;;;;5033487;28;20446;-71
2022/10/09 09:01:26;;;;;;;9.93;4.63;;;14.60;90.50;;;;;;5033233;28;20025;-72
2022/10/09 09:04:16;;;;;;;14.68;5.07;;;14.70;90.40;;;;;;5033392;28;20025;-71
2022/10/09 09:07:17;;;;;;;10.35;4.97;;;14.90;90.30;;;;;;5033787;28;20412;-73
2022/10/09 09:09:54;;;;;;;16.25;5.20;;;15.00;90.50;;;;;;5031976;28;20175;-71
2022/10/09 09:12:46;;;;;;;9.90;4.65;;;15.20;90.10;;;;;;5032563;28;20047;-72
2022/10/09 09:15:45;;;;;;;16.25;4.80;;;15.30;90.10;;;;;;5033401;28;20109;-71
2022/10/09 09:18:25;;;;;;;9.93;3.88;;;15.40;88.30;;;;;;5033144;28;20041;-72
2022/10/09 09:21:01;;;;;;;10.60;4.30;;;15.40;88.10;;;;;;5033063;28;20025;-72
2022/10/09 09:23:39;;;;;;;13.10;4.40;;;15.60;88.30;;;;;;5033379;28;20040;-72
2022/10/09 09:26:14;;;;;;;13.27;4.72;;;15.80;87.20;;;;;;5033192;28;20029;-71
2022/10/09 09:28:40;;;;;;;15.40;4.68;;;15.80;86.50;;;;;;5033364;28;20047;-71
2022/10/09 09:31:14;;;;;;;12.60;4.45;;;16.00;85.70;;;;;;5032913;28;20025;-72
2022/10/09 09:33:54;;;;;;;14.35;4.03;;;16.00;85.20;;;;;;5033366;28;20025;-72
2022/10/09 09:36:37;;;;;;;9.15;3.60;;;16.10;85.60;;;;;;5032937;28;20033;-72
2022/10/09 09:39:03;;;;;;;11.45;3.53;;;16.20;86.20;;;;;;5032979;28;20572;-72
2022/10/09 09:41:28;;;;;;;8.77;2.92;;;16.30;85.20;;;;;;5032849;28;20057;-72
2022/10/09 09:43:54;;;;;;;11.50;3.38;;;16.40;83.60;;;;;;5033059;28;20362;-72
2022/10/09 09:46:25;;;;;;;8.65;3.10;;;16.60;83.40;;;;;;5032710;28;20048;-71
2022/10/09 09:48:52;;;;;;;10.05;3.03;;;16.70;82.60;;;;;;5033192;28;20030;-71
2022/10/09 09:51:28;;;;;;;8.35;2.70;;;16.70;82.50;;;;;;5032518;28;20104;-72
2022/10/09 09:53:58;;;;;;;9.45;3.08;;;16.80;82.60;;;;;;5032673;28;20540;-72
2022/10/09 09:56:39;;;;;;;8.05;2.70;;;17.00;82.30;;;;;;5036239;28;20444;-73
2022/10/09 09:59:06;;;;;;;8.43;2.40;;;17.00;79.80;;;;;;5036663;28;20022;-72
2022/10/09 10:01:34;;;;;;;9.90;2.80;;;17.10;81.20;;;;;;5036950;28;20071;-72
2022/10/09 10:04:02;;;;;;;9.82;2.22;;;17.30;81.50;;;;;;5036693;28;20028;-72
2022/10/09 10:06:30;;;;;;;9.45;2.28;;;17.40;81.60;;;;;;5036261;28;20477;-72
2022/10/09 10:08:59;;;;;;;8.20;2.17;;;17.50;80.30;;;;;;5036675;28;20033;-72
2022/10/09 10:11:25;;;;;;;11.02;2.08;;;17.60;79.80;;;;;;5036395;28;20032;-71
2022/10/09 10:13:50;;;;;;;9.18;2.72;;;17.80;79.00;;;;;;5036532;28;20029;-71
2022/10/09 10:16:23;;;;;;;7.53;2.03;;;17.80;78.20;;;;;;5036539;28;20052;-71
2022/10/09 10:18:48;;;;;;;7.95;2.20;;;17.90;78.40;;;;;;5036429;28;20437;-72
2022/10/09 10:21:16;;;;;;;5.10;1.90;;;18.00;77.20;;;;;;5036057;28;20057;-72
2022/10/09 10:23:59;;;;;;;4.97;1.92;;;18.10;78.00;;;;;;5036367;28;20100;-72
2022/10/09 10:26:40;;;;;;;6.88;2.65;;;18.20;78.10;;;;;;5035827;28;20033;-72
2022/10/09 10:29:22;;;;;;;6.50;2.08;;;18.20;75.90;;;;;;5036358;28;20028;-72
2022/10/09 10:32:07;;;;;;;8.18;2.40;;;18.30;75.80;;;;;;5036057;28;20485;-73
2022/10/09 10:34:41;;;;;;;8.07;2.00;;;18.40;76.00;;;;;;5035863;28;20453;-72
2022/10/09 10:37:13;;;;;;;4.85;2.30;;;18.40;75.20;;;;;;5036003;28;20038;-71
2022/10/09 10:39:49;;;;;;;8.05;2.35;;;18.50;76.40;;;;;;5035917;28;20017;-72
2022/10/09 10:42:22;;;;;;;6.35;1.95;;;18.60;76.40;;;;;;5035948;28;20568;-71
2022/10/09 10:45:03;;;;;;;7.57;1.90;;;18.70;74.50;;;;;;5036149;28;20033;-71
2022/10/09 10:47:33;;;;;;;9.98;2.08;;;18.70;75.20;;;;;;5035721;28;20021;-72
2022/10/09 10:49:59;;;;;;;10.07;2.92;;;18.80;74.80;;;;;;5035369;28;20029;-72
2022/10/09 10:52:30;;;;;;;10.25;2.38;;;18.80;74.00;;;;;;5035344;28;20036;-72
2022/10/09 10:55:14;;;;;;;9.27;2.30;;;18.80;73.40;;;;;;5035883;28;20055;-72
2022/10/09 10:57:54;;;;;;;7.22;2.60;;;18.80;73.20;;;;;;5036049;28;20029;-72
2022/10/09 11:00:20;;;;;;;5.93;1.70;;;18.80;74.50;;;;;;5035956;28;20036;-72
2022/10/09 11:03:07;;;;;;;10.05;2.83;;;18.90;72.60;;;;;;5035696;28;20389;-72
2022/10/09 11:05:45;;;;;;;7.80;2.15;;;19.00;73.90;;;;;;5035338;28;20103;-72
2022/10/09 11:08:58;;;;;;;8.57;2.30;;;19.10;73.20;;;;;;5035585;28;20017;-72
2022/10/09 11:11:50;;;;;;;7.68;2.08;;;19.20;73.30;;;;;;5030378;28;20063;-72
2022/10/09 11:14:21;;;;;;;8.02;1.58;;;19.30;74.00;;;;;;5035259;28;20515;-72
2022/10/09 11:16:52;;;;;;;6.93;2.30;;;19.30;73.20;;;;;;5034845;28;20068;-72
2022/10/09 11:19:23;;;;;;;7.88;1.55;;;19.30;71.80;;;;;;5035156;28;20029;-72
2022/10/09 11:22:17;;;;;;;9.27;2.22;;;19.40;73.50;;;;;;5035037;28;20034;-72
2022/10/09 11:25:01;;;;;;;8.20;2.08;;;19.40;70.10;;;;;;5035131;28;20047;-72
2022/10/09 11:27:44;;;;;;;8.60;1.45;;;19.30;71.30;;;;;;5034846;28;20472;-72
2022/10/09 11:30:12;;;;;;;6.93;1.67;;;19.40;70.90;;;;;;5035284;28;20033;-73
2022/10/09 11:33:21;;;;;;;6.68;1.30;;;19.40;70.90;;;;;;5035129;28;20566;-72
2022/10/09 11:35:55;;;;;;;4.30;1.67;;;19.50;71.80;;;;;;5034854;28;20021;-73
2022/10/09 11:38:32;;;;;;;8.15;1.80;;;19.70;71.10;;;;;;5034715;28;20037;-72
2022/10/09 11:40:58;;;;;;;4.70;1.35;;;19.90;71.00;;;;;;5034989;28;20095;-72
2022/10/09 11:43:23;;;;;;;6.40;1.50;;;20.00;69.40;;;;;;5034808;28;20035;-73
2022/10/09 11:46:08;;;;;;;5.63;1.40;;;20.10;68.20;;;;;;5034607;28;20393;-71
2022/10/09 11:49:06;;;;;;;4.90;1.60;;;20.00;68.30;;;;;;5034613;28;20029;-72
2022/10/09 11:51:58;;;;;;;5.88;1.60;;;20.10;68.50;;;;;;5035186;28;20109;-72
2022/10/09 11:54:29;;;;;;;4.50;1.98;;;20.20;68.90;;;;;;5034537;28;20029;-72
2022/10/09 11:56:59;;;;;;;6.10;1.58;;;20.30;67.30;;;;;;5034297;28;20029;-72
2022/10/09 11:59:36;;;;;;;4.97;1.45;;;20.30;67.30;;;;;;5034588;28;20112;-72
2022/10/09 12:02:32;;;;;;;7.35;1.92;;;20.30;67.30;;;;;;5034319;28;20036;-72
2022/10/09 12:04:58;;;;;;;5.20;1.52;;;20.40;67.70;;;;;;5029465;28;20091;-72
2022/10/09 12:07:36;;;;;;;5.55;1.60;;;20.50;66.80;;;;;;5034022;28;20030;-73
2022/10/09 12:10:30;;;;;;;4.63;1.95;;;20.50;66.60;;;;;;5034210;28;20116;-73
2022/10/09 12:12:59;;;;;;;4.25;1.27;;;20.50;65.10;;;;;;5034277;28;20067;-72
2022/10/09 12:15:48;;;;;;;7.25;1.48;;;20.50;66.90;;;;;;5034052;28;20075;-72
2022/10/09 12:18:27;;;;;;;5.80;1.50;;;20.50;65.40;;;;;;5029231;28;20195;-71
2022/10/09 12:21:00;;;;;;;6.43;1.40;;;20.50;66.20;;;;;;5034222;28;20052;-72
2022/10/09 12:23:30;;;;;;;3.17;1.35;;;20.50;66.10;;;;;;5033769;28;20603;-72
2022/10/09 12:25:56;;;;;;;6.25;1.33;;;20.60;66.30;;;;;;5033064;28;20038;-72
2022/10/09 12:28:42;;;;;;;6.65;1.52;;;20.80;66.00;;;;;;5033458;28;20045;-71
2022/10/09 12:31:38;;;;;;;6.65;1.67;;;20.80;63.60;;;;;;5034070;28;20040;-72
2022/10/09 12:34:12;;;;;;;3.67;1.05;;;20.80;63.80;;;;;;5029089;28;20108;-73
2022/10/09 12:36:37;;;;;;;5.20;1.42;;;21.00;63.90;;;;;;5033969;28;20097;-72
2022/10/09 12:39:23;;;;;;;7.13;1.50;;;21.00;63.30;;;;;;5033637;28;20531;-73
2022/10/09 12:41:53;;;;;;;5.53;1.05;;;21.00;63.50;;;;;;5033961;28;20021;-72
2022/10/09 12:44:34;;;;;;;3.50;0.90;;;20.90;63.80;;;;;;5034021;28;20036;-72
2022/10/09 12:47:16;;;;;;;3.55;0.90;;;20.90;63.50;;;;;;5033785;28;20037;-70
2022/10/09 12:49:52;;;;;;;4.97;0.82;;;21.10;64.00;;;;;;5033896;28;20409;-72
2022/10/09 12:52:18;;;;;;;4.43;0.60;;;21.20;63.70;;;;;;5033465;28;20539;-73
2022/10/09 12:54:43;;;;;;;4.68;0.88;;;21.30;61.80;;;;;;5033491;28;20060;-72
2022/10/09 12:57:13;;;;;;;3.50;0.60;;;21.40;61.90;;;;;;5033104;28;20030;-71
2022/10/09 12:59:39;;;;;;;4.57;0.77;;;21.40;59.90;;;;;;5033376;28;20399;-72
2022/10/09 13:02:10;;;;;;;5.22;0.65;;;21.50;59.90;;;;;;5033383;28;20036;-72
2022/10/09 13:04:36;;;;;;;5.05;0.60;;;21.50;59.70;;;;;;5033478;28;20025;-73